Walnut Ridge, Arkansas
Current Conditions -  °F | °C
As of 6:55 PM on Saturday 22 Nov 2014 (Local Time) from KARG Reporting Station
Broken Clouds Broken Clouds  
Wind Chill: 55°   Ceiling: 10000
Heat Index: 55°   Visibility: 10mi
Dew Point: 43°   Wind: 6mph
Humidity: 63%   Direction: 140°SE
Pressure: 30.02"   Gusts: NA
Location:  36.07°N, 90.96°W
Report Text: KARG 230055Z AUTO 14005KT 10SM BKN100 13/06 A3002 RMK AO1
Loading
Personal Weather Stations






























Interactive Weather Map New forecast layout! Learn more

10-Day Weather Forecast

Advertisements
Track Severe Weather on mobile